sensor_id;sensor_type;location;lat;lon;timestamp;P1;durP1;ratioP1;P2;durP2;ratioP2
70985;SDS011;58645;43.068;25.610;2022-11-15T00:01:30;17.42;;;7.78;;
70985;SDS011;58645;43.068;25.610;2022-11-15T00:03:55;13.57;;;6.70;;
70985;SDS011;58645;43.068;25.610;2022-11-15T00:06:22;12.85;;;6.55;;
70985;SDS011;58645;43.068;25.610;2022-11-15T00:08:47;12.45;;;6.32;;
70985;SDS011;58645;43.068;25.610;2022-11-15T00:11:13;13.30;;;6.55;;
70985;SDS011;58645;43.068;25.610;2022-11-15T00:13:39;12.27;;;6.63;;
70985;SDS011;58645;43.068;25.610;2022-11-15T00:16:05;12.95;;;6.95;;
70985;SDS011;58645;43.068;25.610;2022-11-15T00:18:31;12.68;;;6.38;;
70985;SDS011;58645;43.068;25.610;2022-11-15T00:21:02;12.73;;;6.55;;
70985;SDS011;58645;43.068;25.610;2022-11-15T00:23:30;14.45;;;5.80;;
70985;SDS011;58645;43.068;25.610;2022-11-15T00:25:56;13.07;;;6.43;;
70985;SDS011;58645;43.068;25.610;2022-11-15T00:28:23;14.45;;;6.53;;
70985;SDS011;58645;43.068;25.610;2022-11-15T00:30:49;14.52;;;6.70;;
70985;SDS011;58645;43.068;25.610;2022-11-15T00:33:15;16.80;;;7.47;;
70985;SDS011;58645;43.068;25.610;2022-11-15T00:35:40;13.45;;;7.05;;
70985;SDS011;58645;43.068;25.610;2022-11-15T00:38:06;13.23;;;6.72;;
70985;SDS011;58645;43.068;25.610;2022-11-15T00:40:32;17.33;;;7.30;;
70985;SDS011;58645;43.068;25.610;2022-11-15T00:42:58;16.67;;;8.40;;
70985;SDS011;58645;43.068;25.610;2022-11-15T00:45:24;13.18;;;6.88;;
70985;SDS011;58645;43.068;25.610;2022-11-15T00:47:50;14.35;;;7.70;;
70985;SDS011;58645;43.068;25.610;2022-11-15T00:50:16;15.77;;;7.15;;
70985;SDS011;58645;43.068;25.610;2022-11-15T00:52:42;14.60;;;7.88;;
70985;SDS011;58645;43.068;25.610;2022-11-15T00:55:18;12.98;;;6.57;;
70985;SDS011;58645;43.068;25.610;2022-11-15T00:57:44;12.73;;;7.25;;
70985;SDS011;58645;43.068;25.610;2022-11-15T01:02:36;14.13;;;6.47;;
70985;SDS011;58645;43.068;25.610;2022-11-15T01:05:02;14.00;;;6.53;;
70985;SDS011;58645;43.068;25.610;2022-11-15T01:07:28;15.38;;;7.68;;
70985;SDS011;58645;43.068;25.610;2022-11-15T01:09:54;13.10;;;6.95;;
70985;SDS011;58645;43.068;25.610;2022-11-15T01:12:20;14.25;;;7.70;;
70985;SDS011;58645;43.068;25.610;2022-11-15T01:14:45;14.27;;;7.50;;
70985;SDS011;58645;43.068;25.610;2022-11-15T01:17:11;14.43;;;6.80;;
70985;SDS011;58645;43.068;25.610;2022-11-15T01:19:37;15.43;;;7.15;;
70985;SDS011;58645;43.068;25.610;2022-11-15T01:22:02;15.55;;;7.45;;
70985;SDS011;58645;43.068;25.610;2022-11-15T01:24:28;16.70;;;7.90;;
70985;SDS011;58645;43.068;25.610;2022-11-15T01:26:54;17.08;;;8.00;;
70985;SDS011;58645;43.068;25.610;2022-11-15T01:29:20;17.17;;;7.38;;
70985;SDS011;58645;43.068;25.610;2022-11-15T01:31:45;12.05;;;6.70;;
70985;SDS011;58645;43.068;25.610;2022-11-15T01:34:11;14.68;;;7.47;;
70985;SDS011;58645;43.068;25.610;2022-11-15T01:36:37;18.73;;;8.10;;
70985;SDS011;58645;43.068;25.610;2022-11-15T01:39:02;16.50;;;7.30;;
70985;SDS011;58645;43.068;25.610;2022-11-15T01:41:29;14.27;;;7.82;;
70985;SDS011;58645;43.068;25.610;2022-11-15T01:43:58;14.95;;;8.10;;
70985;SDS011;58645;43.068;25.610;2022-11-15T01:47:02;16.35;;;8.10;;
70985;SDS011;58645;43.068;25.610;2022-11-15T01:49:32;14.40;;;7.13;;
70985;SDS011;58645;43.068;25.610;2022-11-15T01:52:00;14.85;;;8.13;;
70985;SDS011;58645;43.068;25.610;2022-11-15T01:54:30;16.92;;;8.63;;
70985;SDS011;58645;43.068;25.610;2022-11-15T01:57:06;15.00;;;7.88;;
70985;SDS011;58645;43.068;25.610;2022-11-15T01:59:36;18.98;;;8.15;;
70985;SDS011;58645;43.068;25.610;2022-11-15T02:02:05;19.90;;;8.73;;
70985;SDS011;58645;43.068;25.610;2022-11-15T02:04:32;14.65;;;7.53;;
70985;SDS011;58645;43.068;25.610;2022-11-15T02:07:03;14.23;;;7.15;;
70985;SDS011;58645;43.068;25.610;2022-11-15T02:09:30;18.70;;;8.38;;
70985;SDS011;58645;43.068;25.610;2022-11-15T02:11:56;15.75;;;7.90;;
70985;SDS011;58645;43.068;25.610;2022-11-15T02:14:24;18.23;;;8.35;;
70985;SDS011;58645;43.068;25.610;2022-11-15T02:28:22;18.00;;;8.40;;
70985;SDS011;58645;43.068;25.610;2022-11-15T02:42:02;16.67;;;8.30;;
70985;SDS011;58645;43.068;25.610;2022-11-15T02:44:50;17.08;;;8.63;;
70985;SDS011;58645;43.068;25.610;2022-11-15T02:47:18;17.65;;;8.20;;
70985;SDS011;58645;43.068;25.610;2022-11-15T02:49:46;15.82;;;8.38;;
70985;SDS011;58645;43.068;25.610;2022-11-15T02:52:14;16.20;;;8.23;;
70985;SDS011;58645;43.068;25.610;2022-11-15T02:54:54;16.35;;;8.38;;
70985;SDS011;58645;43.068;25.610;2022-11-15T02:57:28;16.77;;;8.75;;
70985;SDS011;58645;43.068;25.610;2022-11-15T03:00:08;17.13;;;8.52;;
70985;SDS011;58645;43.068;25.610;2022-11-15T03:05:25;16.90;;;8.85;;
70985;SDS011;58645;43.068;25.610;2022-11-15T03:11:02;18.38;;;8.88;;
70985;SDS011;58645;43.068;25.610;2022-11-15T03:13:38;19.25;;;9.05;;
70985;SDS011;58645;43.068;25.610;2022-11-15T03:16:11;17.30;;;8.57;;
70985;SDS011;58645;43.068;25.610;2022-11-15T03:18:47;16.70;;;8.10;;
70985;SDS011;58645;43.068;25.610;2022-11-15T03:21:19;16.92;;;8.75;;
70985;SDS011;58645;43.068;25.610;2022-11-15T03:23:46;15.18;;;8.05;;
70985;SDS011;58645;43.068;25.610;2022-11-15T03:26:14;16.38;;;8.13;;
70985;SDS011;58645;43.068;25.610;2022-11-15T03:28:51;16.80;;;8.63;;
70985;SDS011;58645;43.068;25.610;2022-11-15T03:31:21;14.45;;;7.20;;
70985;SDS011;58645;43.068;25.610;2022-11-15T03:34:10;16.90;;;8.60;;
70985;SDS011;58645;43.068;25.610;2022-11-15T03:36:40;16.23;;;7.43;;
70985;SDS011;58645;43.068;25.610;2022-11-15T03:39:07;15.05;;;7.13;;
70985;SDS011;58645;43.068;25.610;2022-11-15T03:47:07;18.13;;;7.88;;
70985;SDS011;58645;43.068;25.610;2022-11-15T03:49:36;14.90;;;7.50;;
70985;SDS011;58645;43.068;25.610;2022-11-15T03:52:08;19.95;;;8.88;;
70985;SDS011;58645;43.068;25.610;2022-11-15T03:54:35;16.85;;;8.02;;
70985;SDS011;58645;43.068;25.610;2022-11-15T03:57:01;18.73;;;8.70;;
70985;SDS011;58645;43.068;25.610;2022-11-15T03:59:27;14.40;;;7.75;;
70985;SDS011;58645;43.068;25.610;2022-11-15T04:01:52;16.95;;;7.03;;
70985;SDS011;58645;43.068;25.610;2022-11-15T04:04:18;14.50;;;7.35;;
70985;SDS011;58645;43.068;25.610;2022-11-15T04:06:44;16.30;;;8.43;;
70985;SDS011;58645;43.068;25.610;2022-11-15T04:09:10;16.55;;;8.43;;
70985;SDS011;58645;43.068;25.610;2022-11-15T04:11:36;16.17;;;8.60;;
70985;SDS011;58645;43.068;25.610;2022-11-15T04:14:01;18.90;;;7.75;;
70985;SDS011;58645;43.068;25.610;2022-11-15T04:16:27;11.48;;;6.22;;
70985;SDS011;58645;43.068;25.610;2022-11-15T04:18:53;14.52;;;7.32;;
70985;SDS011;58645;43.068;25.610;2022-11-15T04:21:37;11.55;;;6.22;;
70985;SDS011;58645;43.068;25.610;2022-11-15T04:24:21;15.52;;;8.02;;
70985;SDS011;58645;43.068;25.610;2022-11-15T04:26:47;15.45;;;7.55;;
70985;SDS011;58645;43.068;25.610;2022-11-15T04:29:12;16.52;;;8.48;;
70985;SDS011;58645;43.068;25.610;2022-11-15T04:31:56;17.45;;;8.35;;
70985;SDS011;58645;43.068;25.610;2022-11-15T04:34:22;18.25;;;9.30;;
70985;SDS011;58645;43.068;25.610;2022-11-15T04:36:48;18.40;;;8.95;;
70985;SDS011;58645;43.068;25.610;2022-11-15T04:39:32;18.90;;;9.38;;
70985;SDS011;58645;43.068;25.610;2022-11-15T04:41:58;19.55;;;8.35;;
70985;SDS011;58645;43.068;25.610;2022-11-15T04:44:23;17.10;;;8.98;;
70985;SDS011;58645;43.068;25.610;2022-11-15T04:46:49;14.23;;;8.18;;
70985;SDS011;58645;43.068;25.610;2022-11-15T04:49:15;16.73;;;9.18;;
70985;SDS011;58645;43.068;25.610;2022-11-15T04:51:40;19.52;;;9.18;;
70985;SDS011;58645;43.068;25.610;2022-11-15T04:54:06;17.73;;;9.13;;
70985;SDS011;58645;43.068;25.610;2022-11-15T04:56:33;17.02;;;8.85;;
70985;SDS011;58645;43.068;25.610;2022-11-15T04:58:58;16.30;;;9.20;;
70985;SDS011;58645;43.068;25.610;2022-11-15T05:01:24;19.05;;;10.60;;
70985;SDS011;58645;43.068;25.610;2022-11-15T05:03:50;18.33;;;8.70;;
70985;SDS011;58645;43.068;25.610;2022-11-15T05:06:34;16.92;;;8.55;;
70985;SDS011;58645;43.068;25.610;2022-11-15T05:09:00;19.77;;;9.63;;
70985;SDS011;58645;43.068;25.610;2022-11-15T05:11:26;17.08;;;8.57;;
70985;SDS011;58645;43.068;25.610;2022-11-15T05:13:52;19.17;;;9.70;;
70985;SDS011;58645;43.068;25.610;2022-11-15T05:16:18;16.95;;;9.25;;
70985;SDS011;58645;43.068;25.610;2022-11-15T05:18:49;17.13;;;8.65;;
70985;SDS011;58645;43.068;25.610;2022-11-15T05:21:16;16.67;;;8.70;;
70985;SDS011;58645;43.068;25.610;2022-11-15T05:23:42;17.10;;;8.80;;
70985;SDS011;58645;43.068;25.610;2022-11-15T05:26:08;18.45;;;9.48;;
70985;SDS011;58645;43.068;25.610;2022-11-15T05:28:35;18.85;;;9.55;;
70985;SDS011;58645;43.068;25.610;2022-11-15T05:31:05;16.88;;;8.88;;
70985;SDS011;58645;43.068;25.610;2022-11-15T05:33:33;16.65;;;8.38;;
70985;SDS011;58645;43.068;25.610;2022-11-15T05:36:45;15.50;;;8.30;;
70985;SDS011;58645;43.068;25.610;2022-11-15T05:38:56;16.35;;;8.30;;
70985;SDS011;58645;43.068;25.610;2022-11-15T05:41:25;17.50;;;9.38;;
70985;SDS011;58645;43.068;25.610;2022-11-15T05:43:55;15.73;;;8.50;;
70985;SDS011;58645;43.068;25.610;2022-11-15T05:46:21;14.60;;;7.60;;
70985;SDS011;58645;43.068;25.610;2022-11-15T05:48:48;18.00;;;8.55;;
70985;SDS011;58645;43.068;25.610;2022-11-15T05:51:17;15.90;;;7.90;;
70985;SDS011;58645;43.068;25.610;2022-11-15T05:54:02;15.77;;;7.55;;
70985;SDS011;58645;43.068;25.610;2022-11-15T05:56:46;15.02;;;8.05;;
70985;SDS011;58645;43.068;25.610;2022-11-15T05:59:30;14.40;;;7.00;;
70985;SDS011;58645;43.068;25.610;2022-11-15T06:02:00;15.32;;;7.80;;
70985;SDS011;58645;43.068;25.610;2022-11-15T06:04:27;13.98;;;6.80;;
70985;SDS011;58645;43.068;25.610;2022-11-15T06:06:53;15.30;;;8.00;;
70985;SDS011;58645;43.068;25.610;2022-11-15T06:09:22;13.88;;;7.50;;
70985;SDS011;58645;43.068;25.610;2022-11-15T06:17:38;17.10;;;7.60;;
70985;SDS011;58645;43.068;25.610;2022-11-15T06:20:04;17.30;;;8.93;;
70985;SDS011;58645;43.068;25.610;2022-11-15T06:22:30;17.60;;;9.85;;
70985;SDS011;58645;43.068;25.610;2022-11-15T06:24:58;15.80;;;8.57;;
70985;SDS011;58645;43.068;25.610;2022-11-15T06:27:24;18.50;;;9.35;;
70985;SDS011;58645;43.068;25.610;2022-11-15T06:29:50;17.95;;;10.10;;
70985;SDS011;58645;43.068;25.610;2022-11-15T06:32:16;18.23;;;9.70;;
70985;SDS011;58645;43.068;25.610;2022-11-15T06:34:41;18.77;;;10.10;;
70985;SDS011;58645;43.068;25.610;2022-11-15T06:37:07;19.85;;;10.68;;
70985;SDS011;58645;43.068;25.610;2022-11-15T06:39:36;20.40;;;11.43;;
70985;SDS011;58645;43.068;25.610;2022-11-15T06:42:02;22.25;;;11.68;;
70985;SDS011;58645;43.068;25.610;2022-11-15T06:44:33;18.63;;;9.32;;
70985;SDS011;58645;43.068;25.610;2022-11-15T06:47:05;15.43;;;8.43;;
70985;SDS011;58645;43.068;25.610;2022-11-15T06:49:32;12.98;;;7.20;;
70985;SDS011;58645;43.068;25.610;2022-11-15T06:51:57;13.25;;;7.82;;
70985;SDS011;58645;43.068;25.610;2022-11-15T06:54:51;12.98;;;7.32;;
70985;SDS011;58645;43.068;25.610;2022-11-15T06:57:17;14.07;;;8.10;;
70985;SDS011;58645;43.068;25.610;2022-11-15T06:59:42;16.85;;;8.68;;
70985;SDS011;58645;43.068;25.610;2022-11-15T07:02:12;16.17;;;8.20;;
70985;SDS011;58645;43.068;25.610;2022-11-15T07:04:38;14.50;;;7.57;;
70985;SDS011;58645;43.068;25.610;2022-11-15T07:07:04;14.68;;;7.93;;
70985;SDS011;58645;43.068;25.610;2022-11-15T07:09:30;12.27;;;6.90;;
70985;SDS011;58645;43.068;25.610;2022-11-15T07:11:56;12.65;;;6.88;;
70985;SDS011;58645;43.068;25.610;2022-11-15T07:14:29;13.23;;;6.63;;
70985;SDS011;58645;43.068;25.610;2022-11-15T07:16:58;13.35;;;7.15;;
70985;SDS011;58645;43.068;25.610;2022-11-15T07:19:24;13.25;;;6.97;;
70985;SDS011;58645;43.068;25.610;2022-11-15T07:21:49;14.23;;;7.85;;
70985;SDS011;58645;43.068;25.610;2022-11-15T07:24:15;13.40;;;7.80;;
70985;SDS011;58645;43.068;25.610;2022-11-15T07:26:41;13.13;;;7.05;;
70985;SDS011;58645;43.068;25.610;2022-11-15T07:29:07;12.98;;;6.25;;
70985;SDS011;58645;43.068;25.610;2022-11-15T07:31:33;12.90;;;7.57;;
70985;SDS011;58645;43.068;25.610;2022-11-15T07:33:59;13.52;;;8.20;;
70985;SDS011;58645;43.068;25.610;2022-11-15T07:36:25;11.73;;;7.07;;
70985;SDS011;58645;43.068;25.610;2022-11-15T07:38:51;13.15;;;7.25;;
70985;SDS011;58645;43.068;25.610;2022-11-15T07:41:19;16.17;;;8.52;;
70985;SDS011;58645;43.068;25.610;2022-11-15T07:43:45;16.85;;;8.00;;
70985;SDS011;58645;43.068;25.610;2022-11-15T07:46:11;13.02;;;6.75;;
70985;SDS011;58645;43.068;25.610;2022-11-15T07:48:37;15.60;;;6.57;;
70985;SDS011;58645;43.068;25.610;2022-11-15T07:51:09;10.48;;;6.13;;
70985;SDS011;58645;43.068;25.610;2022-11-15T07:53:40;12.23;;;6.90;;
70985;SDS011;58645;43.068;25.610;2022-11-15T07:56:29;10.18;;;4.78;;
70985;SDS011;58645;43.068;25.610;2022-11-15T07:58:54;8.38;;;5.57;;
70985;SDS011;58645;43.068;25.610;2022-11-15T08:01:20;10.55;;;6.00;;
70985;SDS011;58645;43.068;25.610;2022-11-15T08:03:46;10.02;;;6.18;;
70985;SDS011;58645;43.068;25.610;2022-11-15T08:06:12;11.60;;;6.57;;
70985;SDS011;58645;43.068;25.610;2022-11-15T08:08:38;10.88;;;6.38;;
70985;SDS011;58645;43.068;25.610;2022-11-15T08:11:03;11.65;;;6.90;;
70985;SDS011;58645;43.068;25.610;2022-11-15T08:13:29;11.45;;;6.63;;
70985;SDS011;58645;43.068;25.610;2022-11-15T08:15:59;12.73;;;7.60;;
70985;SDS011;58645;43.068;25.610;2022-11-15T08:18:25;12.32;;;6.78;;
70985;SDS011;58645;43.068;25.610;2022-11-15T08:20:51;14.00;;;7.18;;
70985;SDS011;58645;43.068;25.610;2022-11-15T08:23:16;11.90;;;6.80;;
70985;SDS011;58645;43.068;25.610;2022-11-15T08:25:42;11.95;;;6.97;;
70985;SDS011;58645;43.068;25.610;2022-11-15T08:28:09;13.80;;;7.80;;
70985;SDS011;58645;43.068;25.610;2022-11-15T08:30:36;14.45;;;7.55;;
70985;SDS011;58645;43.068;25.610;2022-11-15T08:33:09;12.68;;;7.53;;
70985;SDS011;58645;43.068;25.610;2022-11-15T08:35:36;11.95;;;6.75;;
70985;SDS011;58645;43.068;25.610;2022-11-15T08:38:02;16.95;;;8.15;;
70985;SDS011;58645;43.068;25.610;2022-11-15T08:40:28;14.65;;;7.90;;
70985;SDS011;58645;43.068;25.610;2022-11-15T08:42:53;15.30;;;8.00;;
70985;SDS011;58645;43.068;25.610;2022-11-15T08:45:19;14.40;;;7.57;;
70985;SDS011;58645;43.068;25.610;2022-11-15T08:47:45;16.65;;;8.57;;
70985;SDS011;58645;43.068;25.610;2022-11-15T08:50:11;14.48;;;8.15;;
70985;SDS011;58645;43.068;25.610;2022-11-15T08:52:36;16.88;;;9.82;;
70985;SDS011;58645;43.068;25.610;2022-11-15T08:55:02;16.88;;;9.05;;
70985;SDS011;58645;43.068;25.610;2022-11-15T08:57:29;17.52;;;10.18;;
70985;SDS011;58645;43.068;25.610;2022-11-15T08:59:56;17.00;;;9.20;;
70985;SDS011;58645;43.068;25.610;2022-11-15T09:02:22;20.50;;;10.45;;
70985;SDS011;58645;43.068;25.610;2022-11-15T09:04:47;19.73;;;10.10;;
70985;SDS011;58645;43.068;25.610;2022-11-15T09:07:13;33.72;;;12.45;;
70985;SDS011;58645;43.068;25.610;2022-11-15T09:09:39;20.60;;;10.10;;
70985;SDS011;58645;43.068;25.610;2022-11-15T09:12:06;18.23;;;9.35;;
70985;SDS011;58645;43.068;25.610;2022-11-15T09:14:32;16.23;;;8.82;;
70985;SDS011;58645;43.068;25.610;2022-11-15T09:16:59;16.90;;;9.48;;
70985;SDS011;58645;43.068;25.610;2022-11-15T09:19:25;23.40;;;11.65;;
70985;SDS011;58645;43.068;25.610;2022-11-15T09:21:51;16.92;;;9.23;;
70985;SDS011;58645;43.068;25.610;2022-11-15T09:24:17;15.35;;;8.98;;
70985;SDS011;58645;43.068;25.610;2022-11-15T09:26:43;16.30;;;9.38;;
70985;SDS011;58645;43.068;25.610;2022-11-15T09:29:09;15.48;;;8.82;;
70985;SDS011;58645;43.068;25.610;2022-11-15T09:31:35;14.65;;;8.25;;
70985;SDS011;58645;43.068;25.610;2022-11-15T09:34:01;13.07;;;7.70;;
70985;SDS011;58645;43.068;25.610;2022-11-15T09:36:26;14.40;;;8.13;;
70985;SDS011;58645;43.068;25.610;2022-11-15T09:38:52;14.65;;;7.97;;
70985;SDS011;58645;43.068;25.610;2022-11-15T09:41:25;13.30;;;6.85;;
70985;SDS011;58645;43.068;25.610;2022-11-15T09:49:58;15.02;;;8.27;;
70985;SDS011;58645;43.068;25.610;2022-11-15T09:52:26;13.38;;;7.03;;
70985;SDS011;58645;43.068;25.610;2022-11-15T09:54:53;11.65;;;6.80;;
70985;SDS011;58645;43.068;25.610;2022-11-15T09:57:30;12.35;;;6.75;;
70985;SDS011;58645;43.068;25.610;2022-11-15T10:05:19;13.25;;;7.60;;
70985;SDS011;58645;43.068;25.610;2022-11-15T10:08:06;14.25;;;7.18;;
70985;SDS011;58645;43.068;25.610;2022-11-15T10:10:43;13.32;;;6.97;;
70985;SDS011;58645;43.068;25.610;2022-11-15T10:13:33;13.07;;;6.68;;
70985;SDS011;58645;43.068;25.610;2022-11-15T10:16:07;13.05;;;7.15;;
70985;SDS011;58645;43.068;25.610;2022-11-15T10:21:29;13.88;;;7.90;;
70985;SDS011;58645;43.068;25.610;2022-11-15T10:24:15;11.77;;;6.63;;
70985;SDS011;58645;43.068;25.610;2022-11-15T10:26:48;11.75;;;7.18;;
70985;SDS011;58645;43.068;25.610;2022-11-15T10:29:18;14.30;;;7.78;;
70985;SDS011;58645;43.068;25.610;2022-11-15T10:31:54;15.50;;;8.70;;
70985;SDS011;58645;43.068;25.610;2022-11-15T10:34:34;15.35;;;8.15;;
70985;SDS011;58645;43.068;25.610;2022-11-15T10:37:01;16.38;;;8.00;;
70985;SDS011;58645;43.068;25.610;2022-11-15T10:39:27;17.10;;;8.88;;
70985;SDS011;58645;43.068;25.610;2022-11-15T10:42:14;17.77;;;9.15;;
70985;SDS011;58645;43.068;25.610;2022-11-15T10:44:50;16.00;;;8.32;;
70985;SDS011;58645;43.068;25.610;2022-11-15T10:47:23;16.80;;;8.82;;
70985;SDS011;58645;43.068;25.610;2022-11-15T10:49:58;22.33;;;10.30;;
70985;SDS011;58645;43.068;25.610;2022-11-15T10:52:29;26.95;;;11.38;;
70985;SDS011;58645;43.068;25.610;2022-11-15T10:57:48;21.00;;;11.35;;
70985;SDS011;58645;43.068;25.610;2022-11-15T11:08:36;23.13;;;12.77;;
70985;SDS011;58645;43.068;25.610;2022-11-15T11:11:03;30.63;;;13.02;;
70985;SDS011;58645;43.068;25.610;2022-11-15T11:13:31;24.30;;;12.75;;
70985;SDS011;58645;43.068;25.610;2022-11-15T11:24:34;25.20;;;12.23;;
70985;SDS011;58645;43.068;25.610;2022-11-15T11:27:20;23.85;;;11.57;;
70985;SDS011;58645;43.068;25.610;2022-11-15T11:35:20;23.98;;;11.45;;
70985;SDS011;58645;43.068;25.610;2022-11-15T11:37:52;28.80;;;12.35;;
70985;SDS011;58645;43.068;25.610;2022-11-15T11:40:43;24.98;;;12.48;;
70985;SDS011;58645;43.068;25.610;2022-11-15T11:49:39;22.23;;;11.45;;
70985;SDS011;58645;43.068;25.610;2022-11-15T11:55:33;24.55;;;10.57;;
70985;SDS011;58645;43.068;25.610;2022-11-15T11:58:19;24.60;;;11.55;;
70985;SDS011;58645;43.068;25.610;2022-11-15T12:06:33;23.25;;;11.27;;
70985;SDS011;58645;43.068;25.610;2022-11-15T12:11:55;34.42;;;16.25;;
70985;SDS011;58645;43.068;25.610;2022-11-15T12:14:51;34.70;;;15.77;;
70985;SDS011;58645;43.068;25.610;2022-11-15T12:17:25;30.70;;;15.57;;
70985;SDS011;58645;43.068;25.610;2022-11-15T12:19:57;29.80;;;15.63;;
70985;SDS011;58645;43.068;25.610;2022-11-15T12:27:46;24.00;;;11.05;;
70985;SDS011;58645;43.068;25.610;2022-11-15T12:30:18;22.58;;;11.80;;
70985;SDS011;58645;43.068;25.610;2022-11-15T12:32:58;25.40;;;11.85;;
70985;SDS011;58645;43.068;25.610;2022-11-15T12:38:10;24.85;;;10.75;;
70985;SDS011;58645;43.068;25.610;2022-11-15T12:40:38;22.70;;;10.77;;
70985;SDS011;58645;43.068;25.610;2022-11-15T12:46:03;23.33;;;11.73;;
70985;SDS011;58645;43.068;25.610;2022-11-15T12:51:02;25.17;;;11.30;;
70985;SDS011;58645;43.068;25.610;2022-11-15T12:53:32;23.75;;;11.02;;
70985;SDS011;58645;43.068;25.610;2022-11-15T12:58:51;24.40;;;11.63;;
70985;SDS011;58645;43.068;25.610;2022-11-15T13:06:45;29.23;;;12.50;;
70985;SDS011;58645;43.068;25.610;2022-11-15T13:12:03;26.90;;;12.27;;
70985;SDS011;58645;43.068;25.610;2022-11-15T13:19:47;23.73;;;11.63;;
70985;SDS011;58645;43.068;25.610;2022-11-15T13:22:25;26.15;;;10.75;;
70985;SDS011;58645;43.068;25.610;2022-11-15T13:27:40;25.35;;;11.68;;
70985;SDS011;58645;43.068;25.610;2022-11-15T13:30:13;26.40;;;11.52;;
70985;SDS011;58645;43.068;25.610;2022-11-15T13:32:43;22.75;;;11.45;;
70985;SDS011;58645;43.068;25.610;2022-11-15T13:35:09;26.50;;;11.65;;
70985;SDS011;58645;43.068;25.610;2022-11-15T13:37:35;25.88;;;11.40;;
70985;SDS011;58645;43.068;25.610;2022-11-15T13:43:12;26.42;;;11.50;;
70985;SDS011;58645;43.068;25.610;2022-11-15T13:46:35;26.45;;;12.38;;
70985;SDS011;58645;43.068;25.610;2022-11-15T13:48:43;23.05;;;10.95;;
70985;SDS011;58645;43.068;25.610;2022-11-15T13:54:02;23.90;;;10.77;;
70985;SDS011;58645;43.068;25.610;2022-11-15T13:56:29;24.65;;;10.18;;
70985;SDS011;58645;43.068;25.610;2022-11-15T13:58:57;22.85;;;11.30;;
70985;SDS011;58645;43.068;25.610;2022-11-15T14:01:23;26.33;;;12.13;;
70985;SDS011;58645;43.068;25.610;2022-11-15T14:03:55;22.88;;;11.07;;
70985;SDS011;58645;43.068;25.610;2022-11-15T14:06:23;25.80;;;12.02;;
70985;SDS011;58645;43.068;25.610;2022-11-15T14:09:00;25.95;;;11.85;;
70985;SDS011;58645;43.068;25.610;2022-11-15T14:11:26;29.35;;;11.70;;
70985;SDS011;58645;43.068;25.610;2022-11-15T14:14:00;28.08;;;11.18;;
70985;SDS011;58645;43.068;25.610;2022-11-15T14:16:34;25.75;;;12.13;;
70985;SDS011;58645;43.068;25.610;2022-11-15T14:19:05;24.13;;;11.05;;
70985;SDS011;58645;43.068;25.610;2022-11-15T14:21:34;28.02;;;11.77;;
70985;SDS011;58645;43.068;25.610;2022-11-15T14:24:13;29.85;;;11.98;;
70985;SDS011;58645;43.068;25.610;2022-11-15T14:26:44;27.60;;;11.95;;
70985;SDS011;58645;43.068;25.610;2022-11-15T14:29:28;25.27;;;12.77;;
70985;SDS011;58645;43.068;25.610;2022-11-15T14:34:54;31.83;;;13.98;;
70985;SDS011;58645;43.068;25.610;2022-11-15T14:37:23;26.30;;;12.20;;
70985;SDS011;58645;43.068;25.610;2022-11-15T14:39:51;26.05;;;11.93;;
70985;SDS011;58645;43.068;25.610;2022-11-15T14:42:17;29.98;;;12.18;;
70985;SDS011;58645;43.068;25.610;2022-11-15T14:44:44;26.45;;;12.43;;
70985;SDS011;58645;43.068;25.610;2022-11-15T14:47:11;27.85;;;12.65;;
70985;SDS011;58645;43.068;25.610;2022-11-15T14:49:36;25.02;;;12.25;;
70985;SDS011;58645;43.068;25.610;2022-11-15T14:52:02;29.02;;;12.50;;
70985;SDS011;58645;43.068;25.610;2022-11-15T14:54:42;28.20;;;12.48;;
70985;SDS011;58645;43.068;25.610;2022-11-15T14:57:07;26.83;;;12.48;;
70985;SDS011;58645;43.068;25.610;2022-11-15T14:59:33;29.25;;;14.10;;
70985;SDS011;58645;43.068;25.610;2022-11-15T15:01:59;24.42;;;11.77;;
70985;SDS011;58645;43.068;25.610;2022-11-15T15:04:25;30.48;;;13.98;;
70985;SDS011;58645;43.068;25.610;2022-11-15T15:06:52;34.28;;;14.35;;
70985;SDS011;58645;43.068;25.610;2022-11-15T15:09:18;32.17;;;12.75;;
70985;SDS011;58645;43.068;25.610;2022-11-15T15:11:44;33.40;;;14.10;;
70985;SDS011;58645;43.068;25.610;2022-11-15T15:16:39;27.50;;;12.40;;
70985;SDS011;58645;43.068;25.610;2022-11-15T15:19:05;28.70;;;12.68;;
70985;SDS011;58645;43.068;25.610;2022-11-15T15:21:31;23.98;;;12.75;;
70985;SDS011;58645;43.068;25.610;2022-11-15T15:23:56;32.67;;;12.93;;
70985;SDS011;58645;43.068;25.610;2022-11-15T15:26:22;25.70;;;11.88;;
70985;SDS011;58645;43.068;25.610;2022-11-15T15:28:49;23.25;;;11.07;;
70985;SDS011;58645;43.068;25.610;2022-11-15T15:31:17;22.73;;;11.27;;
70985;SDS011;58645;43.068;25.610;2022-11-15T15:33:46;26.80;;;12.07;;
70985;SDS011;58645;43.068;25.610;2022-11-15T15:36:12;25.08;;;11.75;;
70985;SDS011;58645;43.068;25.610;2022-11-15T15:38:39;26.90;;;12.43;;
70985;SDS011;58645;43.068;25.610;2022-11-15T15:41:13;24.08;;;11.82;;
70985;SDS011;58645;43.068;25.610;2022-11-15T15:43:40;24.30;;;12.65;;
70985;SDS011;58645;43.068;25.610;2022-11-15T15:46:13;30.67;;;13.18;;
70985;SDS011;58645;43.068;25.610;2022-11-15T15:48:40;26.35;;;13.15;;
70985;SDS011;58645;43.068;25.610;2022-11-15T15:51:06;23.08;;;11.32;;
70985;SDS011;58645;43.068;25.610;2022-11-15T15:53:33;24.15;;;11.25;;
70985;SDS011;58645;43.068;25.610;2022-11-15T15:55:59;27.00;;;11.82;;
70985;SDS011;58645;43.068;25.610;2022-11-15T15:58:25;27.90;;;11.40;;
70985;SDS011;58645;43.068;25.610;2022-11-15T16:00:51;24.42;;;11.65;;
70985;SDS011;58645;43.068;25.610;2022-11-15T16:03:17;22.85;;;10.82;;
70985;SDS011;58645;43.068;25.610;2022-11-15T16:05:43;24.13;;;12.32;;
70985;SDS011;58645;43.068;25.610;2022-11-15T16:08:16;28.75;;;12.77;;
70985;SDS011;58645;43.068;25.610;2022-11-15T16:10:47;28.10;;;14.35;;
70985;SDS011;58645;43.068;25.610;2022-11-15T16:13:13;32.13;;;14.02;;
70985;SDS011;58645;43.068;25.610;2022-11-15T16:15:39;27.27;;;12.80;;
70985;SDS011;58645;43.068;25.610;2022-11-15T16:18:06;25.20;;;11.75;;
70985;SDS011;58645;43.068;25.610;2022-11-15T16:23:14;25.77;;;11.20;;
70985;SDS011;58645;43.068;25.610;2022-11-15T16:25:45;28.88;;;12.63;;
70985;SDS011;58645;43.068;25.610;2022-11-15T16:28:21;23.38;;;11.73;;
70985;SDS011;58645;43.068;25.610;2022-11-15T16:30:48;26.17;;;11.85;;
70985;SDS011;58645;43.068;25.610;2022-11-15T16:33:14;26.40;;;13.07;;
70985;SDS011;58645;43.068;25.610;2022-11-15T16:35:42;25.50;;;12.52;;
70985;SDS011;58645;43.068;25.610;2022-11-15T16:38:13;25.83;;;11.75;;
70985;SDS011;58645;43.068;25.610;2022-11-15T16:40:40;24.20;;;12.68;;
70985;SDS011;58645;43.068;25.610;2022-11-15T16:43:06;27.35;;;12.20;;
70985;SDS011;58645;43.068;25.610;2022-11-15T16:45:33;27.60;;;14.30;;
70985;SDS011;58645;43.068;25.610;2022-11-15T16:47:59;27.23;;;13.45;;
70985;SDS011;58645;43.068;25.610;2022-11-15T16:50:26;30.75;;;14.02;;
70985;SDS011;58645;43.068;25.610;2022-11-15T16:52:55;24.13;;;12.02;;
70985;SDS011;58645;43.068;25.610;2022-11-15T16:55:23;26.00;;;12.60;;